createdAt,value
2022-10-18T00:01:04.351Z,10.00
2022-10-18T00:03:32.007Z,13.00
2022-10-18T00:06:00.268Z,17.20
2022-10-18T00:08:29.379Z,7.60
2022-10-18T00:10:57.371Z,22.20
2022-10-18T00:13:25.353Z,11.60
2022-10-18T00:15:58.061Z,5.40
2022-10-18T00:18:25.956Z,14.40
2022-10-18T00:21:14.359Z,12.80
2022-10-18T00:23:42.263Z,16.20
2022-10-18T00:26:18.872Z,16.60
2022-10-18T00:28:50.357Z,13.60
2022-10-18T00:31:19.850Z,18.40
2022-10-18T00:33:50.486Z,15.00
2022-10-18T00:36:18.998Z,20.80
2022-10-18T00:38:47.173Z,17.00
2022-10-18T00:41:24.391Z,16.60
2022-10-18T00:44:04.094Z,23.80
2022-10-18T00:46:37.375Z,20.80
2022-10-18T00:49:32.874Z,18.20
2022-10-18T00:52:08.021Z,24.60
2022-10-18T00:54:38.525Z,27.60
2022-10-18T00:57:06.819Z,18.60
2022-10-18T00:59:35.553Z,17.20
2022-10-18T01:02:03.751Z,23.80
2022-10-18T01:04:31.482Z,24.80
2022-10-18T01:07:38.993Z,20.80
2022-10-18T01:10:31.210Z,22.40
2022-10-18T01:13:26.502Z,24.60
2022-10-18T01:16:00.938Z,21.40
2022-10-18T01:18:40.321Z,25.80
2022-10-18T01:21:16.310Z,24.20
2022-10-18T01:24:21.071Z,23.50
2022-10-18T01:27:29.231Z,25.75
2022-10-18T01:30:31.042Z,23.00
2022-10-18T01:33:27.239Z,23.00
2022-10-18T01:36:05.578Z,19.75
2022-10-18T01:38:34.957Z,22.00
2022-10-18T01:41:04.879Z,23.25
2022-10-18T01:43:34.610Z,14.25
2022-10-18T01:46:04.503Z,20.50
2022-10-18T01:48:33.795Z,23.75
2022-10-18T01:51:01.078Z,21.75
2022-10-18T01:53:34.797Z,20.00
2022-10-18T01:56:18.561Z,20.00
2022-10-18T01:59:21.638Z,17.00
2022-10-18T02:02:13.792Z,28.50
2022-10-18T02:05:03.306Z,25.25
2022-10-18T02:07:55.353Z,18.50
2022-10-18T02:10:50.141Z,19.00
2022-10-18T02:13:21.832Z,23.75
2022-10-18T02:15:54.026Z,17.25
2022-10-18T02:18:27.628Z,12.50
2022-10-18T02:20:56.919Z,16.00
2022-10-18T02:23:26.908Z,18.50
2022-10-18T02:25:55.114Z,19.75
2022-10-18T02:31:18.521Z,14.00
2022-10-18T02:34:11.871Z,19.25
2022-10-18T02:36:55.704Z,16.50
2022-10-18T02:39:33.803Z,22.00
2022-10-18T02:42:01.889Z,17.75
2022-10-18T02:44:29.379Z,15.50
2022-10-18T02:46:57.081Z,15.00
2022-10-18T02:49:24.534Z,12.50
2022-10-18T02:51:51.951Z,12.50
2022-10-18T02:54:19.368Z,16.25
2022-10-18T02:56:47.191Z,16.50
2022-10-18T02:59:14.861Z,12.25
2022-10-18T03:01:42.634Z,12.50
2022-10-18T03:04:10.336Z,15.25
2022-10-18T03:06:37.881Z,19.75
2022-10-18T03:09:06.751Z,15.75
2022-10-18T03:11:34.656Z,13.50
2022-10-18T03:14:02.240Z,16.00
2022-10-18T03:16:29.956Z,11.50
2022-10-18T03:18:57.322Z,11.25
2022-10-18T03:21:24.923Z,15.25
2022-10-18T03:23:52.615Z,12.50
2022-10-18T03:26:21.801Z,13.00
2022-10-18T03:28:49.411Z,15.25
2022-10-18T03:31:17.510Z,11.25
2022-10-18T03:33:50.577Z,15.25
2022-10-18T03:36:18.309Z,11.75
2022-10-18T03:38:45.812Z,12.50
2022-10-18T03:41:13.522Z,13.75
2022-10-18T03:43:40.913Z,9.25
2022-10-18T03:46:08.444Z,12.25
2022-10-18T03:48:38.583Z,9.00
2022-10-18T03:51:06.339Z,11.50
2022-10-18T03:53:33.551Z,10.25
2022-10-18T03:56:01.045Z,12.00
2022-10-18T03:58:28.228Z,9.50
2022-10-18T04:00:55.955Z,7.00
2022-10-18T04:03:23.776Z,11.25
2022-10-18T04:05:51.544Z,8.50
2022-10-18T04:08:19.422Z,6.50
2022-10-18T04:10:46.944Z,8.75
2022-10-18T04:13:14.597Z,7.75
2022-10-18T04:15:41.951Z,5.25
2022-10-18T04:18:09.267Z,7.50
2022-10-18T04:20:36.610Z,7.50
2022-10-18T04:23:03.849Z,4.25
2022-10-18T04:25:31.325Z,4.25
2022-10-18T04:27:58.776Z,4.25
2022-10-18T04:30:26.143Z,2.75
2022-10-18T04:32:53.412Z,4.00
2022-10-18T04:35:24.772Z,6.25
2022-10-18T04:37:52.485Z,3.50
2022-10-18T04:40:22.434Z,3.50
2022-10-18T04:42:50.003Z,3.50
2022-10-18T04:45:17.351Z,4.00
2022-10-18T04:47:44.916Z,2.50
2022-10-18T04:50:12.134Z,1.00
2022-10-18T04:52:39.529Z,3.00
2022-10-18T04:55:07.563Z,3.25
2022-10-18T04:57:35.168Z,4.50
2022-10-18T05:00:02.797Z,2.00
2022-10-18T05:02:30.767Z,3.50
2022-10-18T05:04:58.598Z,4.50
2022-10-18T05:07:26.029Z,3.25
2022-10-18T05:09:53.442Z,2.00
2022-10-18T05:12:20.763Z,2.00
2022-10-18T05:14:48.182Z,2.00
2022-10-18T05:17:15.787Z,2.00
2022-10-18T05:19:43.115Z,4.00
2022-10-18T05:22:10.571Z,2.50
2022-10-18T05:24:37.788Z,2.00
2022-10-18T05:27:05.369Z,2.00
2022-10-18T05:29:32.700Z,2.00
2022-10-18T05:31:59.965Z,2.50
2022-10-18T05:34:27.507Z,2.00
2022-10-18T05:36:54.898Z,3.00
2022-10-18T05:39:22.217Z,3.50
2022-10-18T05:41:50.196Z,3.50
2022-10-18T05:44:17.771Z,5.75
2022-10-18T05:46:45.099Z,3.00
2022-10-18T05:49:13.537Z,5.00
2022-10-18T05:51:40.992Z,2.75
2022-10-18T05:54:09.639Z,4.50
2022-10-18T05:59:08.022Z,4.75
2022-10-18T06:01:35.367Z,2.50
2022-10-18T06:04:02.748Z,4.00
2022-10-18T06:06:31.798Z,3.50
2022-10-18T06:08:59.549Z,3.00
2022-10-18T06:11:27.122Z,3.25
2022-10-18T06:13:54.489Z,4.50
2022-10-18T06:16:23.256Z,3.50
2022-10-18T06:18:55.907Z,4.00
2022-10-18T06:21:25.014Z,4.75
2022-10-18T06:23:54.236Z,4.50
2022-10-18T06:26:22.461Z,2.00
2022-10-18T06:28:50.291Z,4.75
2022-10-18T06:31:17.934Z,3.25
2022-10-18T06:33:46.303Z,5.00
2022-10-18T06:36:19.592Z,2.00
2022-10-18T06:38:46.917Z,4.00
2022-10-18T06:41:14.712Z,3.00
2022-10-18T06:43:42.018Z,3.00
2022-10-18T06:46:09.824Z,4.50
2022-10-18T06:48:38.749Z,6.75
2022-10-18T06:51:08.102Z,4.75
2022-10-18T06:53:44.114Z,2.75
2022-10-18T06:56:16.198Z,3.25
2022-10-18T06:58:43.479Z,4.00
2022-10-18T07:01:14.165Z,5.00
2022-10-18T07:03:41.587Z,3.25
2022-10-18T07:06:11.872Z,5.00
2022-10-18T07:08:39.794Z,6.25
2022-10-18T07:11:08.952Z,4.00
2022-10-18T07:13:36.345Z,4.50
2022-10-18T07:16:11.560Z,5.50
2022-10-18T07:18:44.234Z,4.00
2022-10-18T07:21:14.528Z,4.50
2022-10-18T07:23:44.446Z,4.00
2022-10-18T07:26:32.392Z,5.00
2022-10-18T07:29:09.208Z,5.00
2022-10-18T07:31:38.858Z,3.25
2022-10-18T07:34:07.119Z,4.50
2022-10-18T07:36:35.094Z,3.25
2022-10-18T07:39:02.463Z,3.25
2022-10-18T07:41:32.064Z,2.50
2022-10-18T07:43:59.643Z,3.50
2022-10-18T07:46:27.226Z,1.00
2022-10-18T07:48:55.421Z,1.25
2022-10-18T07:51:23.120Z,2.00
2022-10-18T07:53:50.306Z,2.00
2022-10-18T07:56:20.699Z,5.25
2022-10-18T07:58:51.544Z,2.75
2022-10-18T08:01:20.462Z,3.25
2022-10-18T08:03:47.978Z,4.75
2022-10-18T08:06:18.175Z,1.50
2022-10-18T08:08:46.387Z,2.25
2022-10-18T08:11:24.523Z,3.00
2022-10-18T08:13:53.029Z,3.00
2022-10-18T08:16:28.595Z,1.00
2022-10-18T08:18:58.611Z,1.00
2022-10-18T08:21:26.801Z,2.60
2022-10-18T08:23:54.226Z,2.60
2022-10-18T08:26:23.246Z,1.00
2022-10-18T08:28:58.287Z,3.00
2022-10-18T08:31:37.361Z,2.40
2022-10-18T08:34:04.668Z,0.40
2022-10-18T08:36:31.959Z,1.00
2022-10-18T08:38:59.941Z,0.00
2022-10-18T08:41:27.303Z,0.00
2022-10-18T08:44:13.892Z,0.00
2022-10-18T08:46:48.271Z,0.20
2022-10-18T08:49:29.359Z,1.00
2022-10-18T08:51:58.264Z,0.20
2022-10-18T08:54:40.079Z,1.00
2022-10-18T08:57:16.007Z,0.00
2022-10-18T08:59:44.412Z,0.00
2022-10-18T09:02:44.647Z,1.00
2022-10-18T09:05:27.227Z,0.00
2022-10-18T09:08:13.159Z,0.00
2022-10-18T09:10:59.370Z,0.00
2022-10-18T09:13:51.713Z,0.60
2022-10-18T09:16:56.663Z,0.00
2022-10-18T09:19:48.381Z,0.00
2022-10-18T09:22:19.551Z,0.00
2022-10-18T09:24:59.948Z,1.80
2022-10-18T09:27:42.576Z,1.00
2022-10-18T09:30:18.603Z,0.20
2022-10-18T09:33:00.641Z,0.20
2022-10-18T09:36:08.942Z,1.00
2022-10-18T09:39:00.276Z,0.00
2022-10-18T09:41:54.351Z,0.00
2022-10-18T09:44:42.214Z,0.40
2022-10-18T09:47:38.610Z,0.20
2022-10-18T09:50:42.314Z,0.00
2022-10-18T09:53:37.154Z,0.40
2022-10-18T09:56:11.139Z,0.60
2022-10-18T09:58:51.811Z,0.00
2022-10-18T10:01:23.494Z,1.00
2022-10-18T10:03:51.720Z,0.00
2022-10-18T10:06:30.761Z,0.00
2022-10-18T10:09:05.981Z,0.00
2022-10-18T10:11:40.546Z,0.00
2022-10-18T10:16:50.131Z,0.00
2022-10-18T10:19:20.461Z,0.00
2022-10-18T10:21:50.683Z,0.00
2022-10-18T10:24:51.062Z,0.00
2022-10-18T10:27:44.463Z,0.00
2022-10-18T10:30:34.417Z,0.00
2022-10-18T10:33:01.987Z,0.00
2022-10-18T10:38:27.716Z,0.20
2022-10-18T10:40:56.658Z,0.00
2022-10-18T10:43:38.080Z,0.00
2022-10-18T10:46:19.279Z,0.00
2022-10-18T10:49:04.153Z,1.00
2022-10-18T10:51:41.322Z,0.20
2022-10-18T10:54:16.567Z,0.00
2022-10-18T10:57:11.563Z,0.00
2022-10-18T10:59:50.453Z,0.00
2022-10-18T11:02:32.068Z,0.00
2022-10-18T11:05:24.656Z,0.00
2022-10-18T11:07:59.101Z,0.00
2022-10-18T11:10:31.425Z,0.00
2022-10-18T11:13:04.956Z,0.00
2022-10-18T11:15:39.157Z,2.80
2022-10-18T11:18:31.990Z,3.40
2022-10-18T11:21:17.002Z,0.00
2022-10-18T11:23:45.731Z,0.40
2022-10-18T11:26:13.210Z,0.60
2022-10-18T11:29:07.534Z,0.00
2022-10-18T11:32:06.377Z,0.00
2022-10-18T11:34:36.760Z,0.00
2022-10-18T11:37:32.190Z,0.00
2022-10-18T11:40:14.203Z,0.00
2022-10-18T11:43:00.484Z,0.00
2022-10-18T11:45:53.014Z,0.00
2022-10-18T11:48:44.113Z,1.00
2022-10-18T11:51:14.684Z,0.00
2022-10-18T11:54:03.694Z,0.00
2022-10-18T11:56:53.810Z,0.00
2022-10-18T11:59:29.368Z,0.00
2022-10-18T12:02:25.967Z,0.00
2022-10-18T12:08:07.486Z,0.00
2022-10-18T12:10:59.971Z,0.00
2022-10-18T12:13:59.110Z,0.00
2022-10-18T12:16:50.536Z,1.00
2022-10-18T12:19:30.362Z,0.75
2022-10-18T12:22:06.041Z,0.75
2022-10-18T12:24:36.040Z,0.75
2022-10-18T12:27:04.733Z,2.25
2022-10-18T12:29:45.375Z,0.00
2022-10-18T12:32:20.502Z,0.00
2022-10-18T12:34:57.853Z,0.00
2022-10-18T12:37:38.835Z,0.50
2022-10-18T12:40:21.837Z,0.00
2022-10-18T12:42:52.496Z,0.00
2022-10-18T12:45:35.706Z,0.00
2022-10-18T12:48:06.851Z,0.00
2022-10-18T12:50:37.493Z,0.00
2022-10-18T12:53:18.322Z,1.00
2022-10-18T12:55:52.260Z,2.00
2022-10-18T12:58:25.819Z,1.25
2022-10-18T13:00:55.942Z,1.00
2022-10-18T13:03:26.231Z,4.00
2022-10-18T13:06:04.301Z,8.75
2022-10-18T13:08:42.229Z,3.00
2022-10-18T13:11:12.395Z,1.75
2022-10-18T13:14:13.097Z,3.25
2022-10-18T13:17:15.895Z,1.25
2022-10-18T13:20:25.591Z,2.00
2022-10-18T13:23:48.673Z,2.00
2022-10-18T13:26:59.076Z,1.50
2022-10-18T13:29:43.038Z,1.00
2022-10-18T13:32:35.278Z,1.00
2022-10-18T13:35:03.715Z,1.00
2022-10-18T13:37:31.346Z,0.00
2022-10-18T13:40:24.973Z,0.00
2022-10-18T13:42:52.454Z,0.00
2022-10-18T13:45:32.223Z,0.00
2022-10-18T13:48:30.591Z,0.00
2022-10-18T13:51:18.176Z,0.00
2022-10-18T13:53:48.612Z,0.25
2022-10-18T13:56:34.060Z,2.25
2022-10-18T13:59:23.225Z,0.00
2022-10-18T14:01:59.377Z,0.00
2022-10-18T14:04:51.557Z,0.00
2022-10-18T14:07:19.967Z,0.00
2022-10-18T14:09:54.988Z,0.00
2022-10-18T14:12:44.930Z,0.00
2022-10-18T14:15:17.451Z,0.00
2022-10-18T14:18:05.147Z,0.00
2022-10-18T14:20:49.551Z,0.00
2022-10-18T14:23:44.902Z,0.00
2022-10-18T14:26:17.962Z,0.00
2022-10-18T14:29:00.763Z,0.00
2022-10-18T14:31:29.121Z,0.00
2022-10-18T14:33:59.017Z,1.00
2022-10-18T14:36:30.529Z,0.50
2022-10-18T14:39:06.689Z,0.00
2022-10-18T14:41:47.495Z,1.00
2022-10-18T14:44:15.061Z,0.00
2022-10-18T14:46:51.863Z,0.50
2022-10-18T14:49:21.155Z,0.00
2022-10-18T14:51:55.298Z,0.00
2022-10-18T14:54:36.575Z,1.50
2022-10-18T14:57:08.258Z,0.75
2022-10-18T14:59:51.818Z,1.00
2022-10-18T15:02:25.182Z,1.00
2022-10-18T15:05:00.760Z,0.00
2022-10-18T15:07:31.564Z,0.00
2022-10-18T15:10:02.796Z,0.00
2022-10-18T15:12:41.090Z,0.00
2022-10-18T15:15:24.493Z,0.75
2022-10-18T15:17:52.521Z,3.50
2022-10-18T15:20:25.294Z,3.00
2022-10-18T15:22:54.002Z,1.00
2022-10-18T15:25:21.410Z,0.50
2022-10-18T15:27:57.346Z,0.50
2022-10-18T15:30:36.813Z,0.50
2022-10-18T15:33:10.122Z,0.00
2022-10-18T15:35:39.943Z,4.50
2022-10-18T15:38:21.776Z,1.00
2022-10-18T15:40:49.152Z,1.00
2022-10-18T15:43:31.998Z,1.25
2022-10-18T15:46:06.580Z,0.00
2022-10-18T15:48:41.181Z,0.50
2022-10-18T15:51:25.197Z,0.00
2022-10-18T15:53:54.637Z,0.00
2022-10-18T15:56:38.579Z,1.75
2022-10-18T15:59:23.623Z,2.00
2022-10-18T16:01:51.241Z,0.75
2022-10-18T16:04:33.051Z,3.00
2022-10-18T16:07:01.106Z,2.00
2022-10-18T16:09:49.323Z,1.50
2022-10-18T16:12:16.892Z,0.00
2022-10-18T16:14:44.307Z,0.00
2022-10-18T16:17:17.089Z,0.00
2022-10-18T16:19:45.063Z,0.00
2022-10-18T16:24:41.538Z,0.00
2022-10-18T16:27:10.784Z,0.00
2022-10-18T16:29:38.444Z,0.25
2022-10-18T16:32:05.741Z,1.00
2022-10-18T16:34:33.274Z,1.00
2022-10-18T16:37:01.244Z,1.50
2022-10-18T16:39:30.371Z,0.00
2022-10-18T16:41:57.684Z,1.00
2022-10-18T16:44:25.211Z,1.25
2022-10-18T16:46:53.979Z,1.00
2022-10-18T16:49:25.278Z,1.00
2022-10-18T16:51:54.206Z,2.75
2022-10-18T16:54:21.959Z,0.00
2022-10-18T16:56:50.494Z,1.50
2022-10-18T16:59:28.990Z,2.25
2022-10-18T17:01:56.543Z,0.75
2022-10-18T17:04:24.176Z,1.00
2022-10-18T17:06:54.911Z,1.00
2022-10-18T17:09:22.327Z,1.50
2022-10-18T17:11:50.523Z,0.50
2022-10-18T17:14:17.801Z,0.25
2022-10-18T17:16:48.242Z,1.00
2022-10-18T17:19:20.576Z,0.75
2022-10-18T17:21:48.022Z,0.50
2022-10-18T17:24:15.661Z,2.00
2022-10-18T17:26:43.075Z,1.50
2022-10-18T17:29:10.625Z,1.00
2022-10-18T17:31:37.906Z,1.50
2022-10-18T17:34:05.428Z,0.25
2022-10-18T17:36:33.614Z,1.50
2022-10-18T17:39:01.693Z,1.00
2022-10-18T17:41:29.404Z,1.50
2022-10-18T17:43:56.821Z,0.00
2022-10-18T17:46:24.389Z,2.00
2022-10-18T17:48:51.742Z,0.00
2022-10-18T17:51:19.467Z,30.20
2022-10-18T17:53:46.876Z,13.80
2022-10-18T17:56:15.314Z,6.50
2022-10-18T17:58:47.222Z,6.80
2022-10-18T18:01:16.516Z,1.50
2022-10-18T18:03:43.967Z,0.00
2022-10-18T18:06:23.549Z,1.00
2022-10-18T18:08:51.388Z,0.50
2022-10-18T18:11:19.149Z,0.25
2022-10-18T18:13:46.598Z,2.75
2022-10-18T18:16:17.508Z,1.00
2022-10-18T18:18:46.177Z,1.00
2022-10-18T18:21:13.722Z,1.50
2022-10-18T18:23:41.643Z,1.50
2022-10-18T18:26:09.545Z,2.75
2022-10-18T18:28:37.317Z,2.00
2022-10-18T18:31:09.977Z,1.00
2022-10-18T18:33:38.363Z,2.25
2022-10-18T18:36:07.151Z,1.00
2022-10-18T18:38:36.849Z,3.00
2022-10-18T18:41:19.614Z,1.75
2022-10-18T18:43:52.136Z,1.50
2022-10-18T18:46:19.994Z,1.00
2022-10-18T18:48:47.879Z,1.00
2022-10-18T18:51:18.733Z,1.20
2022-10-18T18:53:47.461Z,2.00
2022-10-18T18:56:17.870Z,1.20
2022-10-18T18:58:46.612Z,2.00
2022-10-18T19:01:29.423Z,1.80
2022-10-18T19:03:58.049Z,1.75
2022-10-18T19:06:41.185Z,2.00
2022-10-18T19:09:21.946Z,0.00
2022-10-18T19:11:53.268Z,0.75
2022-10-18T19:16:54.844Z,1.00
2022-10-18T19:19:24.698Z,2.75
2022-10-18T19:21:57.671Z,1.00
2022-10-18T19:24:28.517Z,1.60
2022-10-18T19:27:02.113Z,1.40
2022-10-18T19:29:35.039Z,1.00
2022-10-18T19:32:08.801Z,2.00
2022-10-18T19:34:36.313Z,3.00
2022-10-18T19:37:04.741Z,3.00
2022-10-18T19:39:34.617Z,2.20
2022-10-18T19:42:05.539Z,2.00
2022-10-18T19:44:36.075Z,1.20
2022-10-18T19:47:10.254Z,1.00
2022-10-18T19:49:38.934Z,0.40
2022-10-18T19:52:06.407Z,1.00
2022-10-18T19:54:33.838Z,1.00
2022-10-18T19:57:01.083Z,1.00
2022-10-18T19:59:28.524Z,1.00
2022-10-18T20:01:56.045Z,2.00
2022-10-18T20:04:23.614Z,3.00
2022-10-18T20:06:51.444Z,2.00
2022-10-18T20:09:21.617Z,1.20
2022-10-18T20:11:48.996Z,1.00
2022-10-18T20:14:16.770Z,1.20
2022-10-18T20:16:44.122Z,0.00
2022-10-18T20:19:11.991Z,1.80
2022-10-18T20:21:40.283Z,1.00
2022-10-18T20:24:09.730Z,3.00
2022-10-18T20:26:37.518Z,2.00
2022-10-18T20:29:05.941Z,4.00
2022-10-18T20:31:37.492Z,2.80
2022-10-18T20:34:11.970Z,2.00
2022-10-18T20:36:41.241Z,2.40
2022-10-18T20:39:09.294Z,1.20
2022-10-18T20:41:40.081Z,2.00
2022-10-18T20:44:12.363Z,2.40
2022-10-18T20:46:40.901Z,4.20
2022-10-18T20:49:09.415Z,3.20
2022-10-18T20:51:36.938Z,2.60
2022-10-18T20:54:06.361Z,2.80
2022-10-18T20:56:35.668Z,1.80
2022-10-18T20:59:06.409Z,2.20
2022-10-18T21:01:35.261Z,5.40
2022-10-18T21:04:05.997Z,3.60
2022-10-18T21:06:36.075Z,6.40
2022-10-18T21:09:13.240Z,4.00
2022-10-18T21:11:43.338Z,9.20
2022-10-18T21:14:16.698Z,2.40
2022-10-18T21:16:44.714Z,3.00
2022-10-18T21:19:18.225Z,3.60
2022-10-18T21:21:50.036Z,5.00
2022-10-18T21:24:18.806Z,4.20
2022-10-18T21:26:48.117Z,3.60
2022-10-18T21:29:21.559Z,2.80
2022-10-18T21:31:53.194Z,4.40
2022-10-18T21:34:21.136Z,3.20
2022-10-18T21:36:48.834Z,3.40
2022-10-18T21:39:19.696Z,2.80
2022-10-18T21:41:48.003Z,5.20
2022-10-18T21:44:16.441Z,3.00
2022-10-18T21:46:44.216Z,2.20
2022-10-18T21:49:12.090Z,5.40
2022-10-18T21:51:40.210Z,2.20
2022-10-18T21:54:11.533Z,3.60
2022-10-18T21:56:39.564Z,5.60
2022-10-18T21:59:07.128Z,4.40
2022-10-18T22:01:37.094Z,4.80
2022-10-18T22:04:07.852Z,2.40
2022-10-18T22:06:36.615Z,3.00
2022-10-18T22:09:08.676Z,3.60
2022-10-18T22:11:40.198Z,2.00
2022-10-18T22:14:07.995Z,3.80
2022-10-18T22:16:35.926Z,2.50
2022-10-18T22:19:05.717Z,4.25
2022-10-18T22:21:33.841Z,2.00
2022-10-18T22:24:03.846Z,3.20
2022-10-18T22:26:34.800Z,3.00
2022-10-18T22:29:05.896Z,5.50
2022-10-18T22:31:36.278Z,3.50
2022-10-18T22:34:06.660Z,3.25
2022-10-18T22:36:35.650Z,2.00
2022-10-18T22:39:05.826Z,2.25
2022-10-18T22:41:34.841Z,2.50
2022-10-18T22:44:03.780Z,2.50
2022-10-18T22:46:33.286Z,5.25
2022-10-18T22:49:00.861Z,2.50
2022-10-18T22:51:28.460Z,4.75
2022-10-18T22:53:56.275Z,3.00
2022-10-18T22:56:24.799Z,4.60
2022-10-18T22:58:53.054Z,4.25
2022-10-18T23:01:22.922Z,5.25
2022-10-18T23:03:57.961Z,1.00
2022-10-18T23:06:28.407Z,1.75
2022-10-18T23:08:57.432Z,2.25
2022-10-18T23:11:26.249Z,1.00
2022-10-18T23:13:54.417Z,2.00
2022-10-18T23:16:22.554Z,2.50
2022-10-18T23:18:55.659Z,1.50
2022-10-18T23:21:24.853Z,4.00
2022-10-18T23:23:53.991Z,2.00
2022-10-18T23:26:24.493Z,2.25
2022-10-18T23:28:53.271Z,2.50
2022-10-18T23:31:23.841Z,2.75
2022-10-18T23:33:54.300Z,2.60
2022-10-18T23:36:22.859Z,4.00
2022-10-18T23:38:50.615Z,4.00
2022-10-18T23:41:19.123Z,2.40
2022-10-18T23:43:47.612Z,2.20
2022-10-18T23:46:16.929Z,1.00
2022-10-18T23:48:44.774Z,3.00
2022-10-18T23:51:12.578Z,1.00
2022-10-18T23:53:40.197Z,2.40
2022-10-18T23:56:10.828Z,0.00
2022-10-18T23:58:39.535Z,1.00
